sensor_id;sensor_type;location;lat;lon;timestamp;P1;durP1;ratioP1;P2;durP2;ratioP2
4272;SDS011;63887;53.656;9.810;2023-03-07T00:01:00;39.80;;;23.80;;
4272;SDS011;63887;53.656;9.810;2023-03-07T00:03:28;47.67;;;25.67;;
4272;SDS011;63887;53.656;9.810;2023-03-07T00:06:01;41.53;;;23.23;;
4272;SDS011;63887;53.656;9.810;2023-03-07T00:08:29;48.65;;;23.50;;
4272;SDS011;63887;53.656;9.810;2023-03-07T00:10:59;50.45;;;26.60;;
4272;SDS011;63887;53.656;9.810;2023-03-07T00:13:27;44.83;;;25.67;;
4272;SDS011;63887;53.656;9.810;2023-03-07T00:15:58;50.65;;;28.52;;
4272;SDS011;63887;53.656;9.810;2023-03-07T00:18:26;43.45;;;25.02;;
4272;SDS011;63887;53.656;9.810;2023-03-07T00:20:56;43.17;;;26.08;;
4272;SDS011;63887;53.656;9.810;2023-03-07T00:23:23;52.42;;;27.55;;
4272;SDS011;63887;53.656;9.810;2023-03-07T00:25:54;50.10;;;27.42;;
4272;SDS011;63887;53.656;9.810;2023-03-07T00:28:22;43.58;;;27.23;;
4272;SDS011;63887;53.656;9.810;2023-03-07T00:30:48;47.97;;;28.23;;
4272;SDS011;63887;53.656;9.810;2023-03-07T00:33:15;50.03;;;28.40;;
4272;SDS011;63887;53.656;9.810;2023-03-07T00:35:41;52.22;;;28.95;;
4272;SDS011;63887;53.656;9.810;2023-03-07T00:38:09;58.30;;;31.15;;
4272;SDS011;63887;53.656;9.810;2023-03-07T00:40:35;58.20;;;29.27;;
4272;SDS011;63887;53.656;9.810;2023-03-07T00:43:02;56.97;;;27.85;;
4272;SDS011;63887;53.656;9.810;2023-03-07T00:45:28;55.33;;;30.30;;
4272;SDS011;63887;53.656;9.810;2023-03-07T00:47:55;59.70;;;30.70;;
4272;SDS011;63887;53.656;9.810;2023-03-07T00:50:21;57.05;;;30.75;;
4272;SDS011;63887;53.656;9.810;2023-03-07T00:52:48;69.63;;;31.63;;
4272;SDS011;63887;53.656;9.810;2023-03-07T00:55:16;71.43;;;32.33;;
4272;SDS011;63887;53.656;9.810;2023-03-07T00:57:42;67.00;;;32.78;;
4272;SDS011;63887;53.656;9.810;2023-03-07T01:00:09;70.72;;;30.95;;
4272;SDS011;63887;53.656;9.810;2023-03-07T01:02:36;68.55;;;33.42;;
4272;SDS011;63887;53.656;9.810;2023-03-07T01:05:03;66.60;;;33.70;;
4272;SDS011;63887;53.656;9.810;2023-03-07T01:07:30;71.03;;;33.10;;
4272;SDS011;63887;53.656;9.810;2023-03-07T01:09:56;63.78;;;33.97;;
4272;SDS011;63887;53.656;9.810;2023-03-07T01:12:24;72.07;;;33.60;;
4272;SDS011;63887;53.656;9.810;2023-03-07T01:14:50;85.18;;;38.88;;
4272;SDS011;63887;53.656;9.810;2023-03-07T01:17:17;71.53;;;36.50;;
4272;SDS011;63887;53.656;9.810;2023-03-07T01:19:43;68.82;;;34.35;;
4272;SDS011;63887;53.656;9.810;2023-03-07T01:22:10;80.97;;;37.53;;
4272;SDS011;63887;53.656;9.810;2023-03-07T01:24:37;76.40;;;37.13;;
4272;SDS011;63887;53.656;9.810;2023-03-07T01:27:04;70.18;;;35.03;;
4272;SDS011;63887;53.656;9.810;2023-03-07T01:29:32;83.97;;;40.03;;
4272;SDS011;63887;53.656;9.810;2023-03-07T01:31:58;93.47;;;41.95;;
4272;SDS011;63887;53.656;9.810;2023-03-07T01:34:25;81.03;;;41.97;;
4272;SDS011;63887;53.656;9.810;2023-03-07T01:36:51;76.60;;;39.88;;
4272;SDS011;63887;53.656;9.810;2023-03-07T01:39:18;79.00;;;40.28;;
4272;SDS011;63887;53.656;9.810;2023-03-07T01:41:44;74.45;;;38.58;;
4272;SDS011;63887;53.656;9.810;2023-03-07T01:44:12;86.50;;;40.17;;
4272;SDS011;63887;53.656;9.810;2023-03-07T01:46:43;82.40;;;40.83;;
4272;SDS011;63887;53.656;9.810;2023-03-07T01:49:15;79.90;;;38.85;;
4272;SDS011;63887;53.656;9.810;2023-03-07T01:51:48;78.60;;;37.40;;
4272;SDS011;63887;53.656;9.810;2023-03-07T01:54:18;81.75;;;38.70;;
4272;SDS011;63887;53.656;9.810;2023-03-07T01:56:46;77.28;;;37.35;;
4272;SDS011;63887;53.656;9.810;2023-03-07T01:59:14;74.30;;;37.55;;
4272;SDS011;63887;53.656;9.810;2023-03-07T02:01:45;80.00;;;38.40;;
4272;SDS011;63887;53.656;9.810;2023-03-07T02:04:12;73.90;;;34.85;;
4272;SDS011;63887;53.656;9.810;2023-03-07T02:06:42;82.95;;;39.85;;
4272;SDS011;63887;53.656;9.810;2023-03-07T02:09:10;71.50;;;35.33;;
4272;SDS011;63887;53.656;9.810;2023-03-07T02:11:40;73.13;;;36.92;;
4272;SDS011;63887;53.656;9.810;2023-03-07T02:14:08;73.95;;;35.72;;
4272;SDS011;63887;53.656;9.810;2023-03-07T02:16:35;72.20;;;36.50;;
4272;SDS011;63887;53.656;9.810;2023-03-07T02:19:04;67.97;;;34.88;;
4272;SDS011;63887;53.656;9.810;2023-03-07T02:21:38;71.03;;;35.15;;
4272;SDS011;63887;53.656;9.810;2023-03-07T02:24:16;68.43;;;36.05;;
4272;SDS011;63887;53.656;9.810;2023-03-07T02:26:49;76.70;;;36.33;;
4272;SDS011;63887;53.656;9.810;2023-03-07T02:29:17;68.55;;;32.28;;
4272;SDS011;63887;53.656;9.810;2023-03-07T02:31:44;60.00;;;32.33;;
4272;SDS011;63887;53.656;9.810;2023-03-07T02:34:17;59.50;;;30.15;;
4272;SDS011;63887;53.656;9.810;2023-03-07T02:36:45;62.85;;;32.22;;
4272;SDS011;63887;53.656;9.810;2023-03-07T02:39:15;61.67;;;34.13;;
4272;SDS011;63887;53.656;9.810;2023-03-07T02:41:42;65.63;;;34.78;;
4272;SDS011;63887;53.656;9.810;2023-03-07T02:44:10;64.70;;;31.85;;
4272;SDS011;63887;53.656;9.810;2023-03-07T02:46:36;58.80;;;32.28;;
4272;SDS011;63887;53.656;9.810;2023-03-07T02:49:03;64.32;;;32.97;;
4272;SDS011;63887;53.656;9.810;2023-03-07T02:51:29;71.25;;;34.00;;
4272;SDS011;63887;53.656;9.810;2023-03-07T02:53:56;66.32;;;32.08;;
4272;SDS011;63887;53.656;9.810;2023-03-07T02:56:22;66.40;;;34.03;;
4272;SDS011;63887;53.656;9.810;2023-03-07T03:08:43;63.40;;;32.92;;
4272;SDS011;63887;53.656;9.810;2023-03-07T03:11:10;62.33;;;30.60;;
4272;SDS011;63887;53.656;9.810;2023-03-07T03:13:36;58.00;;;29.13;;
4272;SDS011;63887;53.656;9.810;2023-03-07T03:16:03;60.17;;;29.92;;
4272;SDS011;63887;53.656;9.810;2023-03-07T03:18:30;61.80;;;29.20;;
4272;SDS011;63887;53.656;9.810;2023-03-07T03:20:57;54.13;;;28.65;;
4272;SDS011;63887;53.656;9.810;2023-03-07T03:23:25;54.75;;;27.70;;
4272;SDS011;63887;53.656;9.810;2023-03-07T03:26:00;60.70;;;29.40;;
4272;SDS011;63887;53.656;9.810;2023-03-07T03:28:29;47.72;;;27.15;;
4272;SDS011;63887;53.656;9.810;2023-03-07T03:30:56;53.08;;;27.25;;
4272;SDS011;63887;53.656;9.810;2023-03-07T03:33:23;50.28;;;27.27;;
4272;SDS011;63887;53.656;9.810;2023-03-07T03:35:51;52.65;;;27.13;;
4272;SDS011;63887;53.656;9.810;2023-03-07T03:38:17;54.95;;;25.70;;
4272;SDS011;63887;53.656;9.810;2023-03-07T03:43:36;52.53;;;26.63;;
4272;SDS011;63887;53.656;9.810;2023-03-07T03:46:02;50.90;;;26.05;;
4272;SDS011;63887;53.656;9.810;2023-03-07T03:48:30;63.58;;;25.80;;
4272;SDS011;63887;53.656;9.810;2023-03-07T03:51:00;48.00;;;25.85;;
4272;SDS011;63887;53.656;9.810;2023-03-07T03:53:29;50.58;;;24.13;;
4272;SDS011;63887;53.656;9.810;2023-03-07T03:55:59;46.00;;;24.60;;
4272;SDS011;63887;53.656;9.810;2023-03-07T03:58:28;45.70;;;24.25;;
4272;SDS011;63887;53.656;9.810;2023-03-07T04:00:54;41.03;;;23.90;;
4272;SDS011;63887;53.656;9.810;2023-03-07T04:03:21;46.50;;;26.10;;
4272;SDS011;63887;53.656;9.810;2023-03-07T04:05:47;45.00;;;21.85;;
4272;SDS011;63887;53.656;9.810;2023-03-07T04:08:14;41.35;;;22.40;;
4272;SDS011;63887;53.656;9.810;2023-03-07T04:10:40;39.45;;;22.90;;
4272;SDS011;63887;53.656;9.810;2023-03-07T04:13:07;35.13;;;19.58;;
4272;SDS011;63887;53.656;9.810;2023-03-07T04:15:35;36.22;;;19.13;;
4272;SDS011;63887;53.656;9.810;2023-03-07T04:18:02;33.97;;;19.35;;
4272;SDS011;63887;53.656;9.810;2023-03-07T04:20:28;29.08;;;18.50;;
4272;SDS011;63887;53.656;9.810;2023-03-07T04:22:54;30.95;;;17.55;;
4272;SDS011;63887;53.656;9.810;2023-03-07T04:28:12;33.35;;;15.82;;
4272;SDS011;63887;53.656;9.810;2023-03-07T04:30:40;37.00;;;15.45;;
4272;SDS011;63887;53.656;9.810;2023-03-07T04:33:06;26.98;;;14.50;;
4272;SDS011;63887;53.656;9.810;2023-03-07T04:35:33;27.58;;;14.32;;
4272;SDS011;63887;53.656;9.810;2023-03-07T04:37:59;37.80;;;14.38;;
4272;SDS011;63887;53.656;9.810;2023-03-07T04:40:26;26.80;;;13.18;;
4272;SDS011;63887;53.656;9.810;2023-03-07T04:42:52;16.65;;;10.20;;
4272;SDS011;63887;53.656;9.810;2023-03-07T04:45:18;35.88;;;12.38;;
4272;SDS011;63887;53.656;9.810;2023-03-07T04:47:46;23.48;;;10.90;;
4272;SDS011;63887;53.656;9.810;2023-03-07T04:50:13;18.45;;;11.27;;
4272;SDS011;63887;53.656;9.810;2023-03-07T04:52:39;17.10;;;10.68;;
4272;SDS011;63887;53.656;9.810;2023-03-07T04:55:06;16.95;;;11.07;;
4272;SDS011;63887;53.656;9.810;2023-03-07T04:57:33;10.70;;;9.35;;
4272;SDS011;63887;53.656;9.810;2023-03-07T04:59:59;16.80;;;10.40;;
4272;SDS011;63887;53.656;9.810;2023-03-07T05:02:26;16.38;;;8.57;;
4272;SDS011;63887;53.656;9.810;2023-03-07T05:04:53;15.18;;;9.95;;
4272;SDS011;63887;53.656;9.810;2023-03-07T05:07:20;10.32;;;8.68;;
4272;SDS011;63887;53.656;9.810;2023-03-07T05:09:46;10.20;;;8.63;;
4272;SDS011;63887;53.656;9.810;2023-03-07T05:12:13;17.02;;;7.78;;
4272;SDS011;63887;53.656;9.810;2023-03-07T05:14:39;9.00;;;8.25;;
4272;SDS011;63887;53.656;9.810;2023-03-07T05:17:05;8.07;;;7.57;;
4272;SDS011;63887;53.656;9.810;2023-03-07T05:19:32;17.98;;;8.40;;
4272;SDS011;63887;53.656;9.810;2023-03-07T05:22:00;11.15;;;8.95;;
4272;SDS011;63887;53.656;9.810;2023-03-07T05:24:27;12.15;;;9.48;;
4272;SDS011;63887;53.656;9.810;2023-03-07T05:26:53;8.65;;;7.85;;
4272;SDS011;63887;53.656;9.810;2023-03-07T05:29:20;19.38;;;7.60;;
4272;SDS011;63887;53.656;9.810;2023-03-07T05:31:46;7.25;;;6.82;;
4272;SDS011;63887;53.656;9.810;2023-03-07T05:34:12;18.25;;;7.78;;
4272;SDS011;63887;53.656;9.810;2023-03-07T05:36:40;9.40;;;7.50;;
4272;SDS011;63887;53.656;9.810;2023-03-07T05:39:08;10.45;;;6.95;;
4272;SDS011;63887;53.656;9.810;2023-03-07T05:41:35;8.63;;;6.65;;
4272;SDS011;63887;53.656;9.810;2023-03-07T05:44:01;16.65;;;7.03;;
4272;SDS011;63887;53.656;9.810;2023-03-07T05:46:28;15.15;;;6.90;;
4272;SDS011;63887;53.656;9.810;2023-03-07T05:48:54;17.17;;;7.45;;
4272;SDS011;63887;53.656;9.810;2023-03-07T05:51:21;15.55;;;6.30;;
4272;SDS011;63887;53.656;9.810;2023-03-07T05:53:47;23.30;;;6.80;;
4272;SDS011;63887;53.656;9.810;2023-03-07T05:56:15;16.65;;;7.93;;
4272;SDS011;63887;53.656;9.810;2023-03-07T05:58:41;8.10;;;6.15;;
4272;SDS011;63887;53.656;9.810;2023-03-07T06:01:08;11.13;;;7.10;;
4272;SDS011;63887;53.656;9.810;2023-03-07T06:03:34;21.23;;;7.20;;
4272;SDS011;63887;53.656;9.810;2023-03-07T06:06:01;7.05;;;6.45;;
4272;SDS011;63887;53.656;9.810;2023-03-07T06:08:27;14.73;;;7.13;;
4272;SDS011;63887;53.656;9.810;2023-03-07T06:10:54;7.85;;;7.35;;
4272;SDS011;63887;53.656;9.810;2023-03-07T06:13:23;8.43;;;7.70;;
4272;SDS011;63887;53.656;9.810;2023-03-07T06:15:50;15.40;;;7.45;;
4272;SDS011;63887;53.656;9.810;2023-03-07T06:18:17;8.23;;;6.90;;
4272;SDS011;63887;53.656;9.810;2023-03-07T06:20:52;7.53;;;6.80;;
4272;SDS011;63887;53.656;9.810;2023-03-07T06:23:19;7.35;;;6.85;;
4272;SDS011;63887;53.656;9.810;2023-03-07T06:25:46;7.72;;;7.28;;
4272;SDS011;63887;53.656;9.810;2023-03-07T06:28:12;16.65;;;8.02;;
4272;SDS011;63887;53.656;9.810;2023-03-07T06:30:40;7.90;;;6.50;;
4272;SDS011;63887;53.656;9.810;2023-03-07T06:33:06;7.82;;;7.20;;
4272;SDS011;63887;53.656;9.810;2023-03-07T06:35:33;12.18;;;7.90;;
4272;SDS011;63887;53.656;9.810;2023-03-07T06:37:59;8.35;;;7.65;;
4272;SDS011;63887;53.656;9.810;2023-03-07T06:40:26;9.75;;;9.05;;
4272;SDS011;63887;53.656;9.810;2023-03-07T06:42:52;7.95;;;7.22;;
4272;SDS011;63887;53.656;9.810;2023-03-07T06:45:18;20.98;;;8.68;;
4272;SDS011;63887;53.656;9.810;2023-03-07T06:47:46;10.57;;;7.93;;
4272;SDS011;63887;53.656;9.810;2023-03-07T06:50:13;7.70;;;7.05;;
4272;SDS011;63887;53.656;9.810;2023-03-07T06:52:39;8.05;;;7.32;;
4272;SDS011;63887;53.656;9.810;2023-03-07T06:55:07;14.88;;;7.82;;
4272;SDS011;63887;53.656;9.810;2023-03-07T06:57:34;7.68;;;7.05;;
4272;SDS011;63887;53.656;9.810;2023-03-07T07:00:01;11.90;;;7.72;;
4272;SDS011;63887;53.656;9.810;2023-03-07T07:02:29;8.93;;;7.05;;
4272;SDS011;63887;53.656;9.810;2023-03-07T07:04:57;13.20;;;7.10;;
4272;SDS011;63887;53.656;9.810;2023-03-07T07:07:24;8.07;;;7.15;;
4272;SDS011;63887;53.656;9.810;2023-03-07T07:09:51;7.82;;;6.75;;
4272;SDS011;63887;53.656;9.810;2023-03-07T07:12:17;6.90;;;6.40;;
4272;SDS011;63887;53.656;9.810;2023-03-07T07:14:44;6.80;;;6.40;;
4272;SDS011;63887;53.656;9.810;2023-03-07T07:17:10;10.32;;;6.78;;
4272;SDS011;63887;53.656;9.810;2023-03-07T07:19:37;20.52;;;6.78;;
4272;SDS011;63887;53.656;9.810;2023-03-07T07:22:05;10.63;;;7.22;;
4272;SDS011;63887;53.656;9.810;2023-03-07T07:24:36;13.75;;;7.40;;
4272;SDS011;63887;53.656;9.810;2023-03-07T07:27:02;6.97;;;6.35;;
4272;SDS011;63887;53.656;9.810;2023-03-07T07:29:29;7.35;;;6.72;;
4272;SDS011;63887;53.656;9.810;2023-03-07T07:31:55;10.10;;;6.80;;
4272;SDS011;63887;53.656;9.810;2023-03-07T07:34:22;10.70;;;6.70;;
4272;SDS011;63887;53.656;9.810;2023-03-07T07:36:48;14.27;;;8.65;;
4272;SDS011;63887;53.656;9.810;2023-03-07T07:39:18;11.30;;;6.43;;
4272;SDS011;63887;53.656;9.810;2023-03-07T07:41:45;7.70;;;7.13;;
4272;SDS011;63887;53.656;9.810;2023-03-07T07:44:12;8.25;;;7.70;;
4272;SDS011;63887;53.656;9.810;2023-03-07T07:46:38;7.93;;;7.28;;
4272;SDS011;63887;53.656;9.810;2023-03-07T07:49:05;13.75;;;6.97;;
4272;SDS011;63887;53.656;9.810;2023-03-07T07:51:31;7.40;;;6.55;;
4272;SDS011;63887;53.656;9.810;2023-03-07T07:53:58;16.85;;;7.72;;
4272;SDS011;63887;53.656;9.810;2023-03-07T07:56:26;7.35;;;6.55;;
4272;SDS011;63887;53.656;9.810;2023-03-07T07:58:53;17.00;;;7.72;;
4272;SDS011;63887;53.656;9.810;2023-03-07T08:01:20;14.27;;;7.50;;
4272;SDS011;63887;53.656;9.810;2023-03-07T08:03:48;14.20;;;6.72;;
4272;SDS011;63887;53.656;9.810;2023-03-07T08:06:16;16.60;;;7.45;;
4272;SDS011;63887;53.656;9.810;2023-03-07T08:08:43;11.13;;;10.02;;
4272;SDS011;63887;53.656;9.810;2023-03-07T08:11:10;8.75;;;6.90;;
4272;SDS011;63887;53.656;9.810;2023-03-07T08:13:37;13.95;;;7.05;;
4272;SDS011;63887;53.656;9.810;2023-03-07T08:16:07;8.65;;;6.22;;
4272;SDS011;63887;53.656;9.810;2023-03-07T08:18:34;26.13;;;9.93;;
4272;SDS011;63887;53.656;9.810;2023-03-07T08:21:01;9.20;;;8.07;;
4272;SDS011;63887;53.656;9.810;2023-03-07T08:23:27;13.80;;;7.43;;
4272;SDS011;63887;53.656;9.810;2023-03-07T08:25:54;7.25;;;6.85;;
4272;SDS011;63887;53.656;9.810;2023-03-07T08:28:20;17.58;;;7.00;;
4272;SDS011;63887;53.656;9.810;2023-03-07T08:30:48;12.15;;;8.73;;
4272;SDS011;63887;53.656;9.810;2023-03-07T08:33:14;14.57;;;8.57;;
4272;SDS011;63887;53.656;9.810;2023-03-07T08:35:41;17.50;;;7.95;;
4272;SDS011;63887;53.656;9.810;2023-03-07T08:38:07;9.10;;;7.88;;
4272;SDS011;63887;53.656;9.810;2023-03-07T08:40:33;10.07;;;6.57;;
4272;SDS011;63887;53.656;9.810;2023-03-07T08:43:00;27.88;;;7.70;;
4272;SDS011;63887;53.656;9.810;2023-03-07T08:45:26;14.23;;;8.85;;
4272;SDS011;63887;53.656;9.810;2023-03-07T08:47:54;15.77;;;7.65;;
4272;SDS011;63887;53.656;9.810;2023-03-07T08:50:22;15.05;;;6.78;;
4272;SDS011;63887;53.656;9.810;2023-03-07T08:52:50;21.98;;;8.43;;
4272;SDS011;63887;53.656;9.810;2023-03-07T08:55:16;17.60;;;8.50;;
4272;SDS011;63887;53.656;9.810;2023-03-07T08:57:43;13.88;;;7.45;;
4272;SDS011;63887;53.656;9.810;2023-03-07T09:00:11;37.53;;;8.57;;
4272;SDS011;63887;53.656;9.810;2023-03-07T09:02:39;17.00;;;7.70;;
4272;SDS011;63887;53.656;9.810;2023-03-07T09:05:07;8.20;;;7.55;;
4272;SDS011;63887;53.656;9.810;2023-03-07T09:07:34;14.30;;;6.88;;
4272;SDS011;63887;53.656;9.810;2023-03-07T09:10:01;9.43;;;7.18;;
4272;SDS011;63887;53.656;9.810;2023-03-07T09:12:28;9.02;;;8.18;;
4272;SDS011;63887;53.656;9.810;2023-03-07T09:14:54;9.70;;;7.25;;
4272;SDS011;63887;53.656;9.810;2023-03-07T09:17:21;10.70;;;8.20;;
4272;SDS011;63887;53.656;9.810;2023-03-07T09:19:47;17.17;;;7.32;;
4272;SDS011;63887;53.656;9.810;2023-03-07T09:22:16;9.57;;;8.02;;
4272;SDS011;63887;53.656;9.810;2023-03-07T09:24:42;9.57;;;7.85;;
4272;SDS011;63887;53.656;9.810;2023-03-07T09:27:08;15.02;;;7.65;;
4272;SDS011;63887;53.656;9.810;2023-03-07T09:29:35;14.55;;;8.23;;
4272;SDS011;63887;53.656;9.810;2023-03-07T09:32:02;26.17;;;7.80;;
4272;SDS011;63887;53.656;9.810;2023-03-07T09:34:28;25.23;;;10.68;;
4272;SDS011;63887;53.656;9.810;2023-03-07T09:36:55;16.67;;;7.72;;
4272;SDS011;63887;53.656;9.810;2023-03-07T09:39:23;16.80;;;7.15;;
4272;SDS011;63887;53.656;9.810;2023-03-07T09:41:54;12.85;;;6.72;;
4272;SDS011;63887;53.656;9.810;2023-03-07T09:44:29;7.88;;;7.10;;
4272;SDS011;63887;53.656;9.810;2023-03-07T09:47:03;8.48;;;7.35;;
4272;SDS011;63887;53.656;9.810;2023-03-07T09:49:39;9.27;;;7.00;;
4272;SDS011;63887;53.656;9.810;2023-03-07T09:52:12;6.78;;;6.40;;
4272;SDS011;63887;53.656;9.810;2023-03-07T09:54:43;17.27;;;9.35;;
4272;SDS011;63887;53.656;9.810;2023-03-07T09:57:13;11.93;;;7.95;;
4272;SDS011;63887;53.656;9.810;2023-03-07T09:59:42;22.60;;;7.65;;
4272;SDS011;63887;53.656;9.810;2023-03-07T10:02:13;16.25;;;8.02;;
4272;SDS011;63887;53.656;9.810;2023-03-07T10:04:46;7.47;;;7.05;;
4272;SDS011;63887;53.656;9.810;2023-03-07T10:07:19;13.60;;;8.48;;
4272;SDS011;63887;53.656;9.810;2023-03-07T10:09:51;7.15;;;6.47;;
4272;SDS011;63887;53.656;9.810;2023-03-07T10:15:31;15.45;;;6.95;;
4272;SDS011;63887;53.656;9.810;2023-03-07T10:18:19;9.73;;;6.13;;
4272;SDS011;63887;53.656;9.810;2023-03-07T10:20:56;6.88;;;6.38;;
4272;SDS011;63887;53.656;9.810;2023-03-07T10:23:39;6.50;;;5.90;;
4272;SDS011;63887;53.656;9.810;2023-03-07T10:26:22;12.30;;;6.70;;
4272;SDS011;63887;53.656;9.810;2023-03-07T10:28:55;7.65;;;7.10;;
4272;SDS011;63887;53.656;9.810;2023-03-07T10:31:26;11.55;;;6.68;;
4272;SDS011;63887;53.656;9.810;2023-03-07T10:33:57;15.05;;;7.13;;
4272;SDS011;63887;53.656;9.810;2023-03-07T10:36:27;11.75;;;6.90;;
4272;SDS011;63887;53.656;9.810;2023-03-07T10:39:01;10.18;;;6.82;;
4272;SDS011;63887;53.656;9.810;2023-03-07T10:41:32;11.90;;;7.25;;
4272;SDS011;63887;53.656;9.810;2023-03-07T10:43:59;8.73;;;7.85;;
4272;SDS011;63887;53.656;9.810;2023-03-07T10:46:26;8.75;;;6.75;;
4272;SDS011;63887;53.656;9.810;2023-03-07T10:48:55;22.85;;;7.47;;
4272;SDS011;63887;53.656;9.810;2023-03-07T10:51:35;11.23;;;7.35;;
4272;SDS011;63887;53.656;9.810;2023-03-07T10:54:12;12.13;;;7.53;;
4272;SDS011;63887;53.656;9.810;2023-03-07T10:56:47;17.20;;;7.97;;
4272;SDS011;63887;53.656;9.810;2023-03-07T10:59:28;12.00;;;7.50;;
4272;SDS011;63887;53.656;9.810;2023-03-07T11:01:55;15.95;;;8.25;;
4272;SDS011;63887;53.656;9.810;2023-03-07T11:04:23;8.35;;;7.00;;
4272;SDS011;63887;53.656;9.810;2023-03-07T11:06:52;14.15;;;7.95;;
4272;SDS011;63887;53.656;9.810;2023-03-07T11:09:21;14.43;;;8.25;;
4272;SDS011;63887;53.656;9.810;2023-03-07T11:11:54;15.18;;;8.00;;
4272;SDS011;63887;53.656;9.810;2023-03-07T11:14:23;8.25;;;7.45;;
4272;SDS011;63887;53.656;9.810;2023-03-07T11:16:51;11.65;;;7.22;;
4272;SDS011;63887;53.656;9.810;2023-03-07T11:19:24;7.25;;;6.70;;
4272;SDS011;63887;53.656;9.810;2023-03-07T11:21:55;13.55;;;7.95;;
4272;SDS011;63887;53.656;9.810;2023-03-07T11:24:23;11.75;;;7.43;;
4272;SDS011;63887;53.656;9.810;2023-03-07T11:26:52;7.70;;;7.05;;
4272;SDS011;63887;53.656;9.810;2023-03-07T11:29:20;8.13;;;7.13;;
4272;SDS011;63887;53.656;9.810;2023-03-07T11:31:50;9.65;;;8.85;;
4272;SDS011;63887;53.656;9.810;2023-03-07T11:34:25;12.70;;;6.63;;
4272;SDS011;63887;53.656;9.810;2023-03-07T11:37:00;7.47;;;6.80;;
4272;SDS011;63887;53.656;9.810;2023-03-07T11:39:36;10.77;;;6.88;;
4272;SDS011;63887;53.656;9.810;2023-03-07T11:42:12;11.10;;;7.70;;
4272;SDS011;63887;53.656;9.810;2023-03-07T11:44:44;17.13;;;7.95;;
4272;SDS011;63887;53.656;9.810;2023-03-07T11:47:20;11.73;;;7.72;;
4272;SDS011;63887;53.656;9.810;2023-03-07T11:50:03;23.85;;;7.18;;
4272;SDS011;63887;53.656;9.810;2023-03-07T11:52:43;15.90;;;6.60;;
4272;SDS011;63887;53.656;9.810;2023-03-07T11:55:29;14.57;;;7.45;;
4272;SDS011;63887;53.656;9.810;2023-03-07T11:58:07;8.35;;;6.75;;
4272;SDS011;63887;53.656;9.810;2023-03-07T12:00:50;14.20;;;7.40;;
4272;SDS011;63887;53.656;9.810;2023-03-07T12:03:34;23.20;;;6.82;;
4272;SDS011;63887;53.656;9.810;2023-03-07T12:06:24;14.00;;;7.18;;
4272;SDS011;63887;53.656;9.810;2023-03-07T12:09:02;14.70;;;6.68;;
4272;SDS011;63887;53.656;9.810;2023-03-07T12:11:47;7.75;;;7.00;;
4272;SDS011;63887;53.656;9.810;2023-03-07T12:14:27;22.30;;;7.25;;
4272;SDS011;63887;53.656;9.810;2023-03-07T12:17:04;13.70;;;6.85;;
4272;SDS011;63887;53.656;9.810;2023-03-07T12:19:54;8.15;;;7.32;;
4272;SDS011;63887;53.656;9.810;2023-03-07T12:22:41;12.13;;;6.63;;
4272;SDS011;63887;53.656;9.810;2023-03-07T12:25:17;30.15;;;8.13;;
4272;SDS011;63887;53.656;9.810;2023-03-07T12:27:52;7.57;;;6.78;;
4272;SDS011;63887;53.656;9.810;2023-03-07T12:30:32;8.48;;;6.72;;
4272;SDS011;63887;53.656;9.810;2023-03-07T12:33:02;7.63;;;6.95;;
4272;SDS011;63887;53.656;9.810;2023-03-07T12:35:31;9.00;;;7.03;;
4272;SDS011;63887;53.656;9.810;2023-03-07T12:38:07;9.95;;;7.03;;
4272;SDS011;63887;53.656;9.810;2023-03-07T12:40:39;11.90;;;7.10;;
4272;SDS011;63887;53.656;9.810;2023-03-07T12:43:09;6.95;;;6.60;;
4272;SDS011;63887;53.656;9.810;2023-03-07T12:45:44;8.40;;;7.75;;
4272;SDS011;63887;53.656;9.810;2023-03-07T12:48:16;11.38;;;7.60;;
4272;SDS011;63887;53.656;9.810;2023-03-07T12:50:49;8.65;;;7.43;;
4272;SDS011;63887;53.656;9.810;2023-03-07T12:53:23;12.68;;;6.43;;
4272;SDS011;63887;53.656;9.810;2023-03-07T12:55:59;7.20;;;6.60;;
4272;SDS011;63887;53.656;9.810;2023-03-07T12:58:33;7.63;;;6.88;;
4272;SDS011;63887;53.656;9.810;2023-03-07T13:01:06;6.18;;;5.80;;
4272;SDS011;63887;53.656;9.810;2023-03-07T13:03:39;9.68;;;6.70;;
4272;SDS011;63887;53.656;9.810;2023-03-07T13:06:12;11.48;;;6.38;;
4272;SDS011;63887;53.656;9.810;2023-03-07T13:08:42;7.28;;;6.55;;
4272;SDS011;63887;53.656;9.810;2023-03-07T13:11:15;6.50;;;6.20;;
4272;SDS011;63887;53.656;9.810;2023-03-07T13:13:46;7.93;;;6.57;;
4272;SDS011;63887;53.656;9.810;2023-03-07T13:16:31;11.48;;;6.57;;
4272;SDS011;63887;53.656;9.810;2023-03-07T13:28:29;11.73;;;6.15;;
4272;SDS011;63887;53.656;9.810;2023-03-07T13:43:33;8.57;;;5.80;;
4272;SDS011;63887;53.656;9.810;2023-03-07T13:46:29;6.47;;;6.10;;
4272;SDS011;63887;53.656;9.810;2023-03-07T13:49:10;5.70;;;5.50;;
4272;SDS011;63887;53.656;9.810;2023-03-07T13:51:38;6.53;;;5.90;;
4272;SDS011;63887;53.656;9.810;2023-03-07T13:54:05;23.10;;;7.18;;
4272;SDS011;63887;53.656;9.810;2023-03-07T13:56:38;16.17;;;6.20;;
4272;SDS011;63887;53.656;9.810;2023-03-07T13:59:12;6.35;;;6.15;;
4272;SDS011;63887;53.656;9.810;2023-03-07T14:01:47;6.60;;;6.25;;
4272;SDS011;63887;53.656;9.810;2023-03-07T14:04:18;10.63;;;6.90;;
4272;SDS011;63887;53.656;9.810;2023-03-07T14:06:49;10.10;;;6.85;;
4272;SDS011;63887;53.656;9.810;2023-03-07T14:09:20;6.18;;;5.90;;
4272;SDS011;63887;53.656;9.810;2023-03-07T14:11:50;7.20;;;6.43;;
4272;SDS011;63887;53.656;9.810;2023-03-07T14:14:33;9.07;;;6.05;;
4272;SDS011;63887;53.656;9.810;2023-03-07T14:17:13;6.10;;;5.68;;
4272;SDS011;63887;53.656;9.810;2023-03-07T14:19:51;15.10;;;6.10;;
4272;SDS011;63887;53.656;9.810;2023-03-07T14:22:29;6.88;;;5.55;;
4272;SDS011;63887;53.656;9.810;2023-03-07T14:25:07;9.82;;;5.97;;
4272;SDS011;63887;53.656;9.810;2023-03-07T14:27:48;6.28;;;5.78;;
4272;SDS011;63887;53.656;9.810;2023-03-07T14:30:17;9.10;;;5.55;;
4272;SDS011;63887;53.656;9.810;2023-03-07T14:32:44;12.35;;;6.30;;
4272;SDS011;63887;53.656;9.810;2023-03-07T14:35:11;7.95;;;6.43;;
4272;SDS011;63887;53.656;9.810;2023-03-07T14:37:41;5.97;;;5.22;;
4272;SDS011;63887;53.656;9.810;2023-03-07T14:40:14;7.78;;;4.88;;
4272;SDS011;63887;53.656;9.810;2023-03-07T14:42:53;6.60;;;6.10;;
4272;SDS011;63887;53.656;9.810;2023-03-07T14:45:26;10.77;;;5.75;;
4272;SDS011;63887;53.656;9.810;2023-03-07T14:48:04;6.57;;;5.70;;
4272;SDS011;63887;53.656;9.810;2023-03-07T14:50:51;6.28;;;5.78;;
4272;SDS011;63887;53.656;9.810;2023-03-07T14:53:21;8.02;;;6.40;;
4272;SDS011;63887;53.656;9.810;2023-03-07T14:55:50;12.10;;;6.07;;
4272;SDS011;63887;53.656;9.810;2023-03-07T14:58:18;20.92;;;7.18;;
4272;SDS011;63887;53.656;9.810;2023-03-07T15:00:55;10.52;;;6.40;;
4272;SDS011;63887;53.656;9.810;2023-03-07T15:03:22;5.40;;;5.20;;
4272;SDS011;63887;53.656;9.810;2023-03-07T15:05:49;8.57;;;6.13;;
4272;SDS011;63887;53.656;9.810;2023-03-07T15:08:17;5.82;;;5.43;;
4272;SDS011;63887;53.656;9.810;2023-03-07T15:10:48;7.10;;;6.47;;
4272;SDS011;63887;53.656;9.810;2023-03-07T15:13:20;7.30;;;5.95;;
4272;SDS011;63887;53.656;9.810;2023-03-07T15:15:50;8.30;;;6.25;;
4272;SDS011;63887;53.656;9.810;2023-03-07T15:18:20;11.85;;;6.50;;
4272;SDS011;63887;53.656;9.810;2023-03-07T15:20:49;7.97;;;6.82;;
4272;SDS011;63887;53.656;9.810;2023-03-07T15:23:21;16.50;;;9.63;;
4272;SDS011;63887;53.656;9.810;2023-03-07T15:25:52;10.55;;;8.07;;
4272;SDS011;63887;53.656;9.810;2023-03-07T15:28:22;10.35;;;8.52;;
4272;SDS011;63887;53.656;9.810;2023-03-07T15:30:52;8.90;;;6.60;;
4272;SDS011;63887;53.656;9.810;2023-03-07T15:33:21;6.63;;;5.97;;
4272;SDS011;63887;53.656;9.810;2023-03-07T15:38:52;7.28;;;4.95;;
4272;SDS011;63887;53.656;9.810;2023-03-07T15:41:56;11.10;;;6.82;;
4272;SDS011;63887;53.656;9.810;2023-03-07T15:44:23;9.25;;;8.45;;
4272;SDS011;63887;53.656;9.810;2023-03-07T15:46:51;6.13;;;5.55;;